sensor_id;sensor_type;location;lat;lon;timestamp;pressure;altitude;pressure_sealevel;temperature;humidity
81155;BME280;70631;50.436;7.826;2023-08-06T00:00:38;98157.34;;;16.63;76.21
81155;BME280;70631;50.436;7.826;2023-08-06T00:03:04;98151.97;;;16.63;75.90
81155;BME280;70631;50.436;7.826;2023-08-06T00:05:29;98145.34;;;16.45;76.58
81155;BME280;70631;50.436;7.826;2023-08-06T00:07:55;98135.81;;;16.23;77.96
81155;BME280;70631;50.436;7.826;2023-08-06T00:10:20;98132.91;;;15.98;78.29
81155;BME280;70631;50.436;7.826;2023-08-06T00:12:45;98141.94;;;15.77;79.18
81155;BME280;70631;50.436;7.826;2023-08-06T00:15:11;98128.50;;;15.64;79.68
81155;BME280;70631;50.436;7.826;2023-08-06T00:17:36;98128.63;;;15.56;80.10
81155;BME280;70631;50.436;7.826;2023-08-06T00:20:03;98125.72;;;15.51;80.61
81155;BME280;70631;50.436;7.826;2023-08-06T00:22:35;98117.03;;;15.49;80.61
81155;BME280;70631;50.436;7.826;2023-08-06T00:25:00;98119.94;;;15.47;80.69
81155;BME280;70631;50.436;7.826;2023-08-06T00:27:26;98124.88;;;15.50;80.52
81155;BME280;70631;50.436;7.826;2023-08-06T00:29:51;98113.53;;;15.55;80.39
81155;BME280;70631;50.436;7.826;2023-08-06T00:32:17;98116.28;;;15.62;80.46
81155;BME280;70631;50.436;7.826;2023-08-06T00:34:43;98115.28;;;15.69;80.37
81155;BME280;70631;50.436;7.826;2023-08-06T00:37:08;98117.75;;;15.77;79.96
81155;BME280;70631;50.436;7.826;2023-08-06T00:39:33;98114.88;;;15.79;80.34
81155;BME280;70631;50.436;7.826;2023-08-06T00:41:58;98112.22;;;15.85;79.89
81155;BME280;70631;50.436;7.826;2023-08-06T00:44:24;98102.72;;;15.89;79.74
81155;BME280;70631;50.436;7.826;2023-08-06T00:46:49;98094.03;;;15.87;80.03
81155;BME280;70631;50.436;7.826;2023-08-06T00:49:15;98094.47;;;15.84;80.07
81155;BME280;70631;50.436;7.826;2023-08-06T00:51:42;98087.81;;;15.80;79.86
81155;BME280;70631;50.436;7.826;2023-08-06T00:54:08;98077.47;;;15.77;79.99
81155;BME280;70631;50.436;7.826;2023-08-06T00:56:35;98089.06;;;15.78;80.16
81155;BME280;70631;50.436;7.826;2023-08-06T00:59:04;98091.72;;;15.78;79.98
81155;BME280;70631;50.436;7.826;2023-08-06T01:01:30;98099.78;;;15.78;80.00
81155;BME280;70631;50.436;7.826;2023-08-06T01:03:56;98084.72;;;15.77;80.40
81155;BME280;70631;50.436;7.826;2023-08-06T01:06:35;98081.19;;;15.76;80.15
81155;BME280;70631;50.436;7.826;2023-08-06T01:09:15;98077.06;;;15.80;80.15
81155;BME280;70631;50.436;7.826;2023-08-06T01:11:58;98076.47;;;15.85;79.76
81155;BME280;70631;50.436;7.826;2023-08-06T01:14:40;98073.38;;;15.88;79.74
81155;BME280;70631;50.436;7.826;2023-08-06T01:17:10;98067.19;;;15.94;79.65
81155;BME280;70631;50.436;7.826;2023-08-06T01:19:37;98075.03;;;15.96;79.90
81155;BME280;70631;50.436;7.826;2023-08-06T01:22:03;98068.41;;;15.92;79.55
81155;BME280;70631;50.436;7.826;2023-08-06T01:24:28;98071.53;;;15.88;79.61
81155;BME280;70631;50.436;7.826;2023-08-06T01:27:15;98070.03;;;15.79;79.42
81155;BME280;70631;50.436;7.826;2023-08-06T01:29:46;98069.88;;;15.87;79.43
81155;BME280;70631;50.436;7.826;2023-08-06T01:32:14;98068.84;;;15.95;79.61
81155;BME280;70631;50.436;7.826;2023-08-06T01:34:41;98077.91;;;16.01;79.11
81155;BME280;70631;50.436;7.826;2023-08-06T01:37:09;98065.72;;;16.05;79.79
81155;BME280;70631;50.436;7.826;2023-08-06T01:39:34;98061.41;;;16.10;79.43
81155;BME280;70631;50.436;7.826;2023-08-06T01:42:00;98069.66;;;16.15;79.34
81155;BME280;70631;50.436;7.826;2023-08-06T01:44:27;98071.72;;;16.20;79.51
81155;BME280;70631;50.436;7.826;2023-08-06T01:46:52;98069.66;;;16.22;79.08
81155;BME280;70631;50.436;7.826;2023-08-06T01:49:17;98070.91;;;16.26;79.38
81155;BME280;70631;50.436;7.826;2023-08-06T01:51:42;98063.88;;;16.25;79.38
81155;BME280;70631;50.436;7.826;2023-08-06T01:54:08;98058.91;;;16.22;79.00
81155;BME280;70631;50.436;7.826;2023-08-06T01:56:33;98062.22;;;16.24;79.39
81155;BME280;70631;50.436;7.826;2023-08-06T01:58:58;98056.44;;;16.20;78.98
81155;BME280;70631;50.436;7.826;2023-08-06T02:01:23;98057.06;;;16.16;79.34
81155;BME280;70631;50.436;7.826;2023-08-06T02:03:49;98054.78;;;16.13;79.43
81155;BME280;70631;50.436;7.826;2023-08-06T02:06:14;98048.59;;;16.12;79.07
81155;BME280;70631;50.436;7.826;2023-08-06T02:08:39;98043.63;;;16.09;79.08
81155;BME280;70631;50.436;7.826;2023-08-06T02:11:05;98040.94;;;16.09;78.82
81155;BME280;70631;50.436;7.826;2023-08-06T02:13:30;98040.53;;;16.12;78.82
81155;BME280;70631;50.436;7.826;2023-08-06T02:15:55;98037.84;;;16.12;78.52
81155;BME280;70631;50.436;7.826;2023-08-06T02:18:21;98028.94;;;16.12;78.26
81155;BME280;70631;50.436;7.826;2023-08-06T02:20:56;98038.25;;;16.03;78.49
81155;BME280;70631;50.436;7.826;2023-08-06T02:23:22;98029.78;;;16.06;78.58
81155;BME280;70631;50.436;7.826;2023-08-06T02:25:48;98042.81;;;16.09;78.41
81155;BME280;70631;50.436;7.826;2023-08-06T02:28:13;98037.84;;;16.12;78.48
81155;BME280;70631;50.436;7.826;2023-08-06T02:30:38;98034.94;;;16.14;78.48
81155;BME280;70631;50.436;7.826;2023-08-06T02:33:03;98032.88;;;16.16;78.44
81155;BME280;70631;50.436;7.826;2023-08-06T02:35:29;98028.94;;;16.18;78.28
81155;BME280;70631;50.436;7.826;2023-08-06T02:37:54;98029.78;;;16.19;77.88
81155;BME280;70631;50.436;7.826;2023-08-06T02:40:19;98018.41;;;16.17;78.06
81155;BME280;70631;50.436;7.826;2023-08-06T02:42:44;98009.72;;;16.15;78.25
81155;BME280;70631;50.436;7.826;2023-08-06T02:45:10;98011.78;;;16.13;78.24
81155;BME280;70631;50.436;7.826;2023-08-06T02:47:35;98016.56;;;16.11;78.07
81155;BME280;70631;50.436;7.826;2023-08-06T02:50:00;98003.94;;;16.05;77.93
81155;BME280;70631;50.436;7.826;2023-08-06T02:52:26;98002.69;;;16.01;78.29
81155;BME280;70631;50.436;7.826;2023-08-06T02:54:51;98001.88;;;16.00;78.35
81155;BME280;70631;50.436;7.826;2023-08-06T02:57:16;97987.00;;;15.98;78.50
81155;BME280;70631;50.436;7.826;2023-08-06T02:59:41;97985.56;;;15.95;78.61
81155;BME280;70631;50.436;7.826;2023-08-06T03:02:07;97980.78;;;15.97;78.63
81155;BME280;70631;50.436;7.826;2023-08-06T03:04:32;97977.69;;;15.94;78.34
81155;BME280;70631;50.436;7.826;2023-08-06T03:06:57;97976.28;;;15.84;78.44
81155;BME280;70631;50.436;7.826;2023-08-06T03:09:22;97972.53;;;15.79;79.15
81155;BME280;70631;50.436;7.826;2023-08-06T03:11:48;97973.34;;;15.79;79.09
81155;BME280;70631;50.436;7.826;2023-08-06T03:14:13;97976.25;;;15.78;79.23
81155;BME280;70631;50.436;7.826;2023-08-06T03:16:38;97970.25;;;15.76;79.16
81155;BME280;70631;50.436;7.826;2023-08-06T03:19:03;97970.25;;;15.76;79.23
81155;BME280;70631;50.436;7.826;2023-08-06T03:21:29;97971.28;;;15.75;79.25
81155;BME280;70631;50.436;7.826;2023-08-06T03:23:54;97972.53;;;15.72;79.13
81155;BME280;70631;50.436;7.826;2023-08-06T03:26:19;97973.78;;;15.70;79.21
81155;BME280;70631;50.436;7.826;2023-08-06T03:28:44;97967.16;;;15.66;79.18
81155;BME280;70631;50.436;7.826;2023-08-06T03:31:10;97965.31;;;15.66;79.28
81155;BME280;70631;50.436;7.826;2023-08-06T03:33:35;97975.84;;;15.68;79.26
81155;BME280;70631;50.436;7.826;2023-08-06T03:36:00;97965.94;;;15.68;79.25
81155;BME280;70631;50.436;7.826;2023-08-06T03:38:26;97962.00;;;15.71;79.09
81155;BME280;70631;50.436;7.826;2023-08-06T03:40:51;97963.88;;;15.70;79.22
81155;BME280;70631;50.436;7.826;2023-08-06T03:43:16;97965.50;;;15.71;79.13
81155;BME280;70631;50.436;7.826;2023-08-06T03:45:42;97978.53;;;15.74;79.11
81155;BME280;70631;50.436;7.826;2023-08-06T03:48:07;97966.75;;;15.75;79.20
81155;BME280;70631;50.436;7.826;2023-08-06T03:50:33;97954.78;;;15.71;79.44
81155;BME280;70631;50.436;7.826;2023-08-06T03:52:59;97963.03;;;15.63;79.39
81155;BME280;70631;50.436;7.826;2023-08-06T03:55:24;97951.41;;;15.56;80.00
81155;BME280;70631;50.436;7.826;2023-08-06T03:57:49;97955.34;;;15.53;79.94
81155;BME280;70631;50.436;7.826;2023-08-06T04:00:15;97949.97;;;15.53;80.18
81155;BME280;70631;50.436;7.826;2023-08-06T04:02:40;97948.75;;;15.56;80.10
81155;BME280;70631;50.436;7.826;2023-08-06T04:05:05;97946.50;;;15.59;79.82
81155;BME280;70631;50.436;7.826;2023-08-06T04:07:31;97949.63;;;15.63;79.94
81155;BME280;70631;50.436;7.826;2023-08-06T04:09:58;97947.56;;;15.65;79.81
81155;BME280;70631;50.436;7.826;2023-08-06T04:12:23;97945.06;;;15.70;79.70
81155;BME280;70631;50.436;7.826;2023-08-06T04:14:50;97952.69;;;15.73;79.72
81155;BME280;70631;50.436;7.826;2023-08-06T04:17:16;97941.97;;;15.73;79.60
81155;BME280;70631;50.436;7.826;2023-08-06T04:19:41;97955.38;;;15.73;79.42
81155;BME280;70631;50.436;7.826;2023-08-06T04:22:06;97952.91;;;15.72;79.79
81155;BME280;70631;50.436;7.826;2023-08-06T04:24:31;97948.16;;;15.74;79.89
81155;BME280;70631;50.436;7.826;2023-08-06T04:26:57;97945.25;;;15.75;79.95
81155;BME280;70631;50.436;7.826;2023-08-06T04:29:22;97947.31;;;15.80;79.96
81155;BME280;70631;50.436;7.826;2023-08-06T04:31:47;97939.88;;;15.82;79.69
81155;BME280;70631;50.436;7.826;2023-08-06T04:34:12;97945.47;;;15.80;79.63
81155;BME280;70631;50.436;7.826;2023-08-06T04:36:38;97939.91;;;15.75;80.08
81155;BME280;70631;50.436;7.826;2023-08-06T04:39:04;97944.44;;;15.75;80.18
81155;BME280;70631;50.436;7.826;2023-08-06T04:41:29;97940.94;;;15.74;80.09
81155;BME280;70631;50.436;7.826;2023-08-06T04:43:54;97941.97;;;15.73;80.02
81155;BME280;70631;50.436;7.826;2023-08-06T04:46:19;97937.84;;;15.71;80.32
81155;BME280;70631;50.436;7.826;2023-08-06T04:48:45;97943.63;;;15.68;80.50
81155;BME280;70631;50.436;7.826;2023-08-06T04:51:10;97943.22;;;15.64;80.47
81155;BME280;70631;50.436;7.826;2023-08-06T04:53:35;97944.25;;;15.63;80.75
81155;BME280;70631;50.436;7.826;2023-08-06T04:56:00;97943.22;;;15.64;80.92
81155;BME280;70631;50.436;7.826;2023-08-06T04:58:26;97942.59;;;15.62;80.76
81155;BME280;70631;50.436;7.826;2023-08-06T05:00:52;97936.59;;;15.60;80.70
81155;BME280;70631;50.436;7.826;2023-08-06T05:03:18;97942.78;;;15.61;80.99
81155;BME280;70631;50.436;7.826;2023-08-06T05:05:45;97939.91;;;15.62;80.94
81155;BME280;70631;50.436;7.826;2023-08-06T05:08:14;97939.72;;;15.64;80.66
81155;BME280;70631;50.436;7.826;2023-08-06T05:10:43;97938.66;;;15.71;80.72
81155;BME280;70631;50.436;7.826;2023-08-06T05:13:08;97939.06;;;15.75;80.48
81155;BME280;70631;50.436;7.826;2023-08-06T05:15:33;97944.22;;;15.76;80.58
81155;BME280;70631;50.436;7.826;2023-08-06T05:17:59;97933.06;;;15.79;80.82
81155;BME280;70631;50.436;7.826;2023-08-06T05:20:24;97938.66;;;15.84;80.64
81155;BME280;70631;50.436;7.826;2023-08-06T05:22:49;97939.91;;;15.88;80.16
81155;BME280;70631;50.436;7.826;2023-08-06T05:25:15;97943.59;;;15.94;80.13
81155;BME280;70631;50.436;7.826;2023-08-06T05:27:40;97934.91;;;15.99;80.15
81155;BME280;70631;50.436;7.826;2023-08-06T05:30:06;97939.44;;;16.05;80.05
81155;BME280;70631;50.436;7.826;2023-08-06T05:32:31;97935.13;;;16.10;80.07
81155;BME280;70631;50.436;7.826;2023-08-06T05:34:57;97933.88;;;16.13;79.93
81155;BME280;70631;50.436;7.826;2023-08-06T05:37:22;97933.44;;;16.16;80.00
81155;BME280;70631;50.436;7.826;2023-08-06T05:39:47;97938.41;;;16.19;79.77
81155;BME280;70631;50.436;7.826;2023-08-06T05:42:13;97941.88;;;16.26;79.88
81155;BME280;70631;50.436;7.826;2023-08-06T05:44:38;97944.38;;;16.34;79.79
81155;BME280;70631;50.436;7.826;2023-08-06T05:47:04;97932.75;;;16.40;79.75
81155;BME280;70631;50.436;7.826;2023-08-06T05:49:29;97940.22;;;16.38;79.19
81155;BME280;70631;50.436;7.826;2023-08-06T05:51:54;97943.34;;;16.29;79.08
81155;BME280;70631;50.436;7.826;2023-08-06T05:54:19;97946.66;;;16.24;79.63
81155;BME280;70631;50.436;7.826;2023-08-06T05:56:45;97946.03;;;16.22;79.65
81155;BME280;70631;50.436;7.826;2023-08-06T05:59:10;97944.38;;;16.21;79.72
81155;BME280;70631;50.436;7.826;2023-08-06T06:01:35;97945.66;;;16.12;79.73
81155;BME280;70631;50.436;7.826;2023-08-06T06:04:01;97945.66;;;16.12;80.12
81155;BME280;70631;50.436;7.826;2023-08-06T06:06:27;97944.81;;;16.18;79.87
81155;BME280;70631;50.436;7.826;2023-08-06T06:08:52;97950.97;;;16.25;79.86
81155;BME280;70631;50.436;7.826;2023-08-06T06:11:17;97949.75;;;16.28;79.68
81155;BME280;70631;50.436;7.826;2023-08-06T06:13:49;97949.75;;;16.28;79.75
81155;BME280;70631;50.436;7.826;2023-08-06T06:16:14;97948.50;;;16.30;79.86
81155;BME280;70631;50.436;7.826;2023-08-06T06:18:40;97957.38;;;16.37;79.66
81155;BME280;70631;50.436;7.826;2023-08-06T06:21:05;97957.56;;;16.42;79.50
81155;BME280;70631;50.436;7.826;2023-08-06T06:23:31;97956.75;;;16.48;79.51
81155;BME280;70631;50.436;7.826;2023-08-06T06:25:56;97959.63;;;16.54;79.85
81155;BME280;70631;50.436;7.826;2023-08-06T06:28:21;97962.91;;;16.56;79.15
81155;BME280;70631;50.436;7.826;2023-08-06T06:30:47;97967.25;;;16.57;79.32
81155;BME280;70631;50.436;7.826;2023-08-06T06:33:13;97965.59;;;16.56;79.14
81155;BME280;70631;50.436;7.826;2023-08-06T06:35:38;97962.06;;;16.62;79.28
81155;BME280;70631;50.436;7.826;2023-08-06T06:38:03;97961.66;;;16.71;78.15
81155;BME280;70631;50.436;7.826;2023-08-06T06:40:28;97958.75;;;16.73;78.31
81155;BME280;70631;50.436;7.826;2023-08-06T06:42:54;97961.41;;;16.79;78.34
81155;BME280;70631;50.436;7.826;2023-08-06T06:45:19;97959.91;;;16.90;78.08
81155;BME280;70631;50.436;7.826;2023-08-06T06:47:44;97966.44;;;17.07;77.64
81155;BME280;70631;50.436;7.826;2023-08-06T06:50:09;97962.25;;;17.18;77.54
81155;BME280;70631;50.436;7.826;2023-08-06T06:52:35;97961.81;;;17.21;77.45
81155;BME280;70631;50.436;7.826;2023-08-06T06:55:00;97967.16;;;17.28;77.20
81155;BME280;70631;50.436;7.826;2023-08-06T06:57:26;97963.53;;;17.47;76.88
81155;BME280;70631;50.436;7.826;2023-08-06T06:59:51;97961.53;;;17.67;76.63
81155;BME280;70631;50.436;7.826;2023-08-06T07:02:16;97967.69;;;17.75;75.94
81155;BME280;70631;50.436;7.826;2023-08-06T07:04:41;97953.91;;;17.89;75.39
81155;BME280;70631;50.436;7.826;2023-08-06T07:07:07;97964.81;;;18.01;75.78
81155;BME280;70631;50.436;7.826;2023-08-06T07:09:32;97957.47;;;18.08;75.77
81155;BME280;70631;50.436;7.826;2023-08-06T07:11:57;97959.50;;;18.13;75.43
81155;BME280;70631;50.436;7.826;2023-08-06T07:14:25;97960.09;;;18.15;75.47
81155;BME280;70631;50.436;7.826;2023-08-06T07:16:50;97947.53;;;18.27;74.87
81155;BME280;70631;50.436;7.826;2023-08-06T07:19:15;97959.06;;;18.34;74.30
81155;BME280;70631;50.436;7.826;2023-08-06T07:21:41;97956.47;;;18.46;74.03
81155;BME280;70631;50.436;7.826;2023-08-06T07:24:06;97962.50;;;18.66;73.90
81155;BME280;70631;50.436;7.826;2023-08-06T07:26:31;97962.34;;;18.79;73.59
81155;BME280;70631;50.436;7.826;2023-08-06T07:28:56;97957.91;;;18.85;73.06
81155;BME280;70631;50.436;7.826;2023-08-06T07:31:22;97956.78;;;18.92;72.11
81155;BME280;70631;50.436;7.826;2023-08-06T07:33:47;97970.56;;;19.03;72.16
81155;BME280;70631;50.436;7.826;2023-08-06T07:36:13;97966.75;;;19.22;71.63
81155;BME280;70631;50.436;7.826;2023-08-06T07:38:39;97961.91;;;19.42;71.24
81155;BME280;70631;50.436;7.826;2023-08-06T07:41:04;97958.72;;;19.64;71.24
81155;BME280;70631;50.436;7.826;2023-08-06T07:43:30;97970.25;;;19.82;69.85
81155;BME280;70631;50.436;7.826;2023-08-06T07:46:00;97964.53;;;20.26;69.71
81155;BME280;70631;50.436;7.826;2023-08-06T07:48:26;97958.28;;;21.12;66.27
81155;BME280;70631;50.436;7.826;2023-08-06T07:50:52;97961.28;;;21.89;63.86
81155;BME280;70631;50.436;7.826;2023-08-06T07:53:20;97958.38;;;22.08;63.18
81155;BME280;70631;50.436;7.826;2023-08-06T07:55:49;97954.13;;;22.34;62.68
81155;BME280;70631;50.436;7.826;2023-08-06T07:58:14;97953.59;;;22.53;61.10
81155;BME280;70631;50.436;7.826;2023-08-06T08:00:40;97956.44;;;22.42;61.56
81155;BME280;70631;50.436;7.826;2023-08-06T08:03:07;97958.09;;;22.26;62.42
81155;BME280;70631;50.436;7.826;2023-08-06T08:05:33;97963.69;;;22.36;62.54
81155;BME280;70631;50.436;7.826;2023-08-06T08:07:58;97957.28;;;22.64;61.79
81155;BME280;70631;50.436;7.826;2023-08-06T08:10:23;97970.03;;;24.10;59.17
81155;BME280;70631;50.436;7.826;2023-08-06T08:12:48;97953.84;;;25.55;55.28
81155;BME280;70631;50.436;7.826;2023-08-06T08:15:14;97955.56;;;25.72;54.02
81155;BME280;70631;50.436;7.826;2023-08-06T08:17:39;97952.28;;;26.05;52.81
81155;BME280;70631;50.436;7.826;2023-08-06T08:20:05;97955.84;;;25.96;52.24
81155;BME280;70631;50.436;7.826;2023-08-06T08:22:30;97958.75;;;25.43;51.90
81155;BME280;70631;50.436;7.826;2023-08-06T08:24:55;97955.88;;;24.97;53.62
81155;BME280;70631;50.436;7.826;2023-08-06T08:27:21;97961.38;;;25.03;53.33
81155;BME280;70631;50.436;7.826;2023-08-06T08:29:46;97961.78;;;26.59;50.63
81155;BME280;70631;50.436;7.826;2023-08-06T08:32:11;97952.56;;;28.66;47.70
81155;BME280;70631;50.436;7.826;2023-08-06T08:34:36;97948.00;;;29.65;44.02
81155;BME280;70631;50.436;7.826;2023-08-06T08:37:02;97945.94;;;29.57;44.95
81155;BME280;70631;50.436;7.826;2023-08-06T08:39:27;97937.94;;;30.72;40.79
81155;BME280;70631;50.436;7.826;2023-08-06T08:41:52;97940.41;;;30.87;40.08
81155;BME280;70631;50.436;7.826;2023-08-06T08:44:18;97944.66;;;31.21;39.68
81155;BME280;70631;50.436;7.826;2023-08-06T08:46:45;97941.19;;;31.29;39.23
81155;BME280;70631;50.436;7.826;2023-08-06T08:49:12;97943.91;;;31.43;38.76
81155;BME280;70631;50.436;7.826;2023-08-06T08:51:38;97943.69;;;30.43;40.53
81155;BME280;70631;50.436;7.826;2023-08-06T08:54:03;97944.97;;;30.18;39.91
81155;BME280;70631;50.436;7.826;2023-08-06T08:56:29;97940.09;;;29.40;41.23
81155;BME280;70631;50.436;7.826;2023-08-06T08:58:54;97950.28;;;28.73;43.05
81155;BME280;70631;50.436;7.826;2023-08-06T09:01:21;97957.34;;;28.21;44.34
81155;BME280;70631;50.436;7.826;2023-08-06T09:03:47;97961.06;;;27.62;44.29
81155;BME280;70631;50.436;7.826;2023-08-06T09:06:13;97963.16;;;26.61;45.75
81155;BME280;70631;50.436;7.826;2023-08-06T09:09:06;97967.28;;;25.77;47.59
81155;BME280;70631;50.436;7.826;2023-08-06T09:11:36;97968.53;;;25.24;47.76
81155;BME280;70631;50.436;7.826;2023-08-06T09:14:06;97971.34;;;26.71;45.90
81155;BME280;70631;50.436;7.826;2023-08-06T09:16:37;97967.56;;;26.22;46.68
81155;BME280;70631;50.436;7.826;2023-08-06T09:19:13;97975.75;;;25.71;48.07
81155;BME280;70631;50.436;7.826;2023-08-06T09:21:41;97972.91;;;25.35;49.02
81155;BME280;70631;50.436;7.826;2023-08-06T09:24:10;97974.91;;;24.92;50.02
81155;BME280;70631;50.436;7.826;2023-08-06T09:26:43;97975.56;;;25.10;49.54
81155;BME280;70631;50.436;7.826;2023-08-06T09:29:09;97964.66;;;27.13;45.98
81155;BME280;70631;50.436;7.826;2023-08-06T09:34:11;97966.25;;;27.68;44.41
81155;BME280;70631;50.436;7.826;2023-08-06T09:36:42;97963.97;;;28.73;42.01
81155;BME280;70631;50.436;7.826;2023-08-06T09:39:19;97955.63;;;30.06;40.85
81155;BME280;70631;50.436;7.826;2023-08-06T09:41:46;97962.13;;;31.52;37.78
81155;BME280;70631;50.436;7.826;2023-08-06T09:44:21;97959.72;;;32.63;35.91
81155;BME280;70631;50.436;7.826;2023-08-06T09:46:56;97952.09;;;32.60;35.82
81155;BME280;70631;50.436;7.826;2023-08-06T09:49:41;97955.13;;;32.80;36.58
81155;BME280;70631;50.436;7.826;2023-08-06T09:52:11;97944.56;;;33.83;34.19
81155;BME280;70631;50.436;7.826;2023-08-06T09:54:37;97963.03;;;32.20;37.71
81155;BME280;70631;50.436;7.826;2023-08-06T09:57:03;97962.38;;;30.74;40.35
81155;BME280;70631;50.436;7.826;2023-08-06T09:59:29;97965.31;;;29.42;41.79
81155;BME280;70631;50.436;7.826;2023-08-06T10:01:56;97973.78;;;28.26;44.51
81155;BME280;70631;50.436;7.826;2023-08-06T10:04:21;97980.94;;;27.38;46.55
81155;BME280;70631;50.436;7.826;2023-08-06T10:06:47;97982.78;;;26.78;47.82
81155;BME280;70631;50.436;7.826;2023-08-06T10:09:13;97980.13;;;26.33;48.07
81155;BME280;70631;50.436;7.826;2023-08-06T10:11:39;97984.78;;;25.86;49.52
81155;BME280;70631;50.436;7.826;2023-08-06T10:14:10;97983.81;;;25.35;49.36
81155;BME280;70631;50.436;7.826;2023-08-06T10:16:37;97990.13;;;24.78;50.65
81155;BME280;70631;50.436;7.826;2023-08-06T10:19:04;97992.91;;;24.46;51.69
81155;BME280;70631;50.436;7.826;2023-08-06T10:21:31;97994.63;;;24.57;51.72
81155;BME280;70631;50.436;7.826;2023-08-06T10:23:57;97999.13;;;24.84;51.84
81155;BME280;70631;50.436;7.826;2023-08-06T10:26:29;97995.97;;;24.55;51.75
81155;BME280;70631;50.436;7.826;2023-08-06T10:28:54;98007.78;;;24.01;53.78
81155;BME280;70631;50.436;7.826;2023-08-06T10:31:24;98010.88;;;23.56;55.63
81155;BME280;70631;50.436;7.826;2023-08-06T10:34:05;98021.56;;;22.97;56.90
81155;BME280;70631;50.436;7.826;2023-08-06T10:36:30;98028.47;;;22.49;58.22
81155;BME280;70631;50.436;7.826;2023-08-06T10:38:58;98043.41;;;22.13;59.90
81155;BME280;70631;50.436;7.826;2023-08-06T10:44:05;98044.81;;;21.30;61.67
81155;BME280;70631;50.436;7.826;2023-08-06T10:46:30;98043.06;;;21.01;63.07
81155;BME280;70631;50.436;7.826;2023-08-06T10:48:56;98045.84;;;20.66;63.90
81155;BME280;70631;50.436;7.826;2023-08-06T10:51:21;98054.38;;;20.28;64.77
81155;BME280;70631;50.436;7.826;2023-08-06T10:53:49;98063.47;;;19.92;66.05
81155;BME280;70631;50.436;7.826;2023-08-06T10:58:45;98087.59;;;19.45;67.73
81155;BME280;70631;50.436;7.826;2023-08-06T11:01:10;98073.00;;;19.16;68.70
81155;BME280;70631;50.436;7.826;2023-08-06T11:03:37;98080.72;;;18.94;68.91
81155;BME280;70631;50.436;7.826;2023-08-06T11:06:03;98080.81;;;18.87;68.21
81155;BME280;70631;50.436;7.826;2023-08-06T11:08:32;98081.53;;;18.95;68.11
81155;BME280;70631;50.436;7.826;2023-08-06T11:11:12;98082.44;;;18.88;68.18
81155;BME280;70631;50.436;7.826;2023-08-06T11:13:44;98082.16;;;18.97;68.05
81155;BME280;70631;50.436;7.826;2023-08-06T11:16:12;98095.50;;;19.10;67.31
81155;BME280;70631;50.436;7.826;2023-08-06T11:18:39;98090.06;;;19.28;67.04
81155;BME280;70631;50.436;7.826;2023-08-06T11:21:05;98102.84;;;19.39;66.88
81155;BME280;70631;50.436;7.826;2023-08-06T11:23:30;98100.41;;;19.49;66.49
81155;BME280;70631;50.436;7.826;2023-08-06T11:25:58;98104.16;;;19.48;66.54
81155;BME280;70631;50.436;7.826;2023-08-06T11:28:24;98104.94;;;19.74;65.13
81155;BME280;70631;50.436;7.826;2023-08-06T11:30:50;98100.56;;;20.03;64.97
81155;BME280;70631;50.436;7.826;2023-08-06T11:33:23;98120.84;;;20.24;64.75
81155;BME280;70631;50.436;7.826;2023-08-06T11:35:50;98117.19;;;20.30;64.72
81155;BME280;70631;50.436;7.826;2023-08-06T11:38:16;98116.00;;;20.26;63.18
81155;BME280;70631;50.436;7.826;2023-08-06T11:40:44;98121.31;;;20.21;63.05
81155;BME280;70631;50.436;7.826;2023-08-06T11:43:10;98124.84;;;20.21;62.88
81155;BME280;70631;50.436;7.826;2023-08-06T11:45:35;98131.16;;;20.15;61.69
81155;BME280;70631;50.436;7.826;2023-08-06T11:48:01;98141.59;;;20.00;62.00
81155;BME280;70631;50.436;7.826;2023-08-06T11:50:26;98151.41;;;19.94;61.59
81155;BME280;70631;50.436;7.826;2023-08-06T11:52:57;98149.66;;;19.70;61.99
81155;BME280;70631;50.436;7.826;2023-08-06T11:55:24;98162.75;;;19.55;63.45
81155;BME280;70631;50.436;7.826;2023-08-06T11:57:50;98162.28;;;19.39;63.67
81155;BME280;70631;50.436;7.826;2023-08-06T12:00:15;98163.38;;;19.13;64.48
81155;BME280;70631;50.436;7.826;2023-08-06T12:02:44;98177.56;;;18.84;65.45
81155;BME280;70631;50.436;7.826;2023-08-06T12:05:14;98169.13;;;18.49;66.13
81155;BME280;70631;50.436;7.826;2023-08-06T12:07:42;98187.91;;;18.30;66.49
81155;BME280;70631;50.436;7.826;2023-08-06T12:10:08;98173.69;;;18.17;67.24
81155;BME280;70631;50.436;7.826;2023-08-06T12:12:34;98180.78;;;18.11;66.92
81155;BME280;70631;50.436;7.826;2023-08-06T12:15:00;98197.00;;;17.98;66.82
81155;BME280;70631;50.436;7.826;2023-08-06T12:17:25;98198.53;;;17.87;67.46
81155;BME280;70631;50.436;7.826;2023-08-06T12:19:51;98201.66;;;17.84;67.78
81155;BME280;70631;50.436;7.826;2023-08-06T12:22:16;98195.44;;;17.84;67.77
81155;BME280;70631;50.436;7.826;2023-08-06T12:24:43;98198.13;;;17.84;67.50
81155;BME280;70631;50.436;7.826;2023-08-06T12:27:09;98201.25;;;17.81;67.83
81155;BME280;70631;50.436;7.826;2023-08-06T12:29:34;98208.91;;;17.84;67.45
81155;BME280;70631;50.436;7.826;2023-08-06T12:31:59;98211.34;;;17.92;67.96
81155;BME280;70631;50.436;7.826;2023-08-06T12:34:25;98210.09;;;18.01;67.59
81155;BME280;70631;50.436;7.826;2023-08-06T12:36:50;98215.88;;;17.98;67.96
81155;BME280;70631;50.436;7.826;2023-08-06T12:39:15;98215.88;;;17.98;67.85
81155;BME280;70631;50.436;7.826;2023-08-06T12:41:40;98220.66;;;17.96;68.32
81155;BME280;70631;50.436;7.826;2023-08-06T12:44:05;98224.56;;;18.07;68.32
81155;BME280;70631;50.436;7.826;2023-08-06T12:46:31;98222.91;;;18.06;68.63
81155;BME280;70631;50.436;7.826;2023-08-06T12:48:56;98231.81;;;18.06;68.51
81155;BME280;70631;50.436;7.826;2023-08-06T12:51:23;98228.75;;;17.96;69.12
81155;BME280;70631;50.436;7.826;2023-08-06T12:53:48;98241.25;;;17.84;69.12
81155;BME280;70631;50.436;7.826;2023-08-06T12:56:13;98243.94;;;17.77;69.77
81155;BME280;70631;50.436;7.826;2023-08-06T12:58:38;98241.28;;;17.70;69.57
81155;BME280;70631;50.436;7.826;2023-08-06T13:01:05;98252.91;;;17.58;69.58
81155;BME280;70631;50.436;7.826;2023-08-06T13:03:30;98261.19;;;17.63;69.23